Time;durP1;ratioP1;P1;durP2;ratioP2;P2;SDS_P1;SDS_P2;PMS_P1;PMS_P2;Temp;Humidity;BMP_temperature;BMP_pressure;BME280_temperature;BME280_humidity;BME280_pressure;Samples;Min_cycle;Max_cycle;Signal;HPM_P1;HPM_P2
2023/03/30 00:00:54;;;;;;;10.13;4.93;;;;;;;1.51;51.10;100747.38;4987719;28;20054;-27
2023/03/30 00:03:21;;;;;;;10.90;4.70;;;;;;;1.75;50.03;100743.41;4987536;28;20100;-26
2023/03/30 00:05:47;;;;;;;9.65;4.60;;;;;;;1.25;51.72;100756.81;4987604;28;20086;-26
2023/03/30 00:08:13;;;;;;;8.07;4.13;;;;;;;0.92;54.05;100751.91;4987151;28;20065;-27
2023/03/30 00:10:39;;;;;;;10.95;4.47;;;;;;;0.51;56.04;100742.47;4987633;28;20027;-26
2023/03/30 00:13:06;;;;;;;8.68;4.55;;;;;;;0.51;56.25;100742.47;4987204;28;20477;-26
2023/03/30 00:15:32;;;;;;;7.45;4.05;;;;;;;1.26;54.43;100747.97;4987460;28;20049;-26
2023/03/30 00:17:58;;;;;;;9.25;4.03;;;;;;;1.00;54.50;100743.28;4987229;28;20426;-27
2023/03/30 00:20:23;;;;;;;8.77;4.10;;;;;;;0.91;55.55;100749.41;4987361;28;20037;-27
2023/03/30 00:22:49;;;;;;;9.20;4.28;;;;;;;0.82;56.38;100740.56;4987110;28;20034;-26
2023/03/30 00:25:16;;;;;;;9.15;4.15;;;;;;;0.46;57.83;100739.44;4987295;28;20037;-27
2023/03/30 00:27:41;;;;;;;9.82;3.90;;;;;;;1.09;56.61;100739.84;4987093;28;20105;-27
2023/03/30 00:30:10;;;;;;;9.00;4.15;;;;;;;1.35;54.51;100713.78;4987295;28;20118;-26
2023/03/30 00:32:36;;;;;;;8.80;4.30;;;;;;;1.56;54.55;100742.50;4987080;28;20030;-27
2023/03/30 00:35:02;;;;;;;7.72;3.70;;;;;;;1.45;55.01;100734.81;4987042;28;20028;-27
2023/03/30 00:37:28;;;;;;;10.32;4.20;;;;;;;1.67;53.92;100738.84;4987050;28;20033;-27
2023/03/30 00:39:54;;;;;;;7.28;3.80;;;;;;;1.65;54.46;100735.53;4987033;28;20911;-27
2023/03/30 00:42:23;;;;;;;8.15;3.90;;;;;;;1.64;54.03;100730.44;4986860;28;20034;-27
2023/03/30 00:45:07;;;;;;;10.75;5.43;;;;;;;1.56;53.93;100733.78;4986935;28;20609;-26
2023/03/30 00:47:37;;;;;;;33.75;13.80;;;;;;;1.39;54.30;100701.22;4986921;28;20026;-27
2023/03/30 00:50:04;;;;;;;29.25;13.50;;;;;;;1.17;55.69;100723.38;4987102;28;20053;-26
2023/03/30 00:52:32;;;;;;;30.40;13.88;;;;;;;0.83;57.01;100738.75;4986854;28;20109;-26
2023/03/30 00:54:58;;;;;;;19.13;7.83;;;;;;;0.58;58.30;100728.66;4986980;28;20121;-27
2023/03/30 00:57:25;;;;;;;22.85;10.25;;;;;;;0.53;57.98;100715.16;4986784;28;20357;-27
2023/03/30 00:59:52;;;;;;;20.27;8.40;;;;;;;0.86;57.24;100735.84;4989397;28;20085;-26
2023/03/30 01:02:20;;;;;;;19.73;9.80;;;;;;;0.40;59.67;100736.38;4990665;28;20027;-26
2023/03/30 01:04:47;;;;;;;23.17;10.10;;;;;;;0.40;58.69;100749.50;4990794;28;20034;-27
2023/03/30 01:07:14;;;;;;;15.57;6.50;;;;;;;0.29;58.32;100736.53;4990974;28;20121;-27
2023/03/30 01:09:41;;;;;;;12.60;6.10;;;;;;;0.33;57.73;100740.53;4990926;28;20057;-26
2023/03/30 01:12:07;;;;;;;15.70;6.40;;;;;;;0.25;58.39;100743.00;4990563;28;20026;-27
2023/03/30 01:14:34;;;;;;;14.85;7.15;;;;;;;0.33;58.09;100748.41;4990407;28;20026;-27
2023/03/30 01:17:19;;;;;;;14.13;6.10;;;;;;;-0.01;57.10;100709.38;4990548;28;20022;-27
2023/03/30 01:20:10;;;;;;;13.48;6.03;;;;;;;0.41;57.16;100750.34;4990502;28;20037;-26
2023/03/30 01:22:36;;;;;;;11.43;5.45;;;;;;;0.43;56.94;100755.44;4990242;28;20446;-27
2023/03/30 01:25:32;;;;;;;12.10;5.93;;;;;;;0.58;56.59;100749.66;4990475;28;20482;-26
2023/03/30 01:28:13;;;;;;;12.30;5.95;;;;;;;0.53;56.27;100751.03;4990416;28;20138;-27
2023/03/30 01:30:44;;;;;;;11.27;5.53;;;;;;;0.76;56.20;100752.44;4990433;28;20034;-26
2023/03/30 01:33:39;;;;;;;16.15;6.13;;;;;;;0.51;56.45;100755.59;4990199;28;20022;-27
2023/03/30 01:36:19;;;;;;;10.90;5.70;;;;;;;0.87;56.34;100753.28;4990346;28;20046;-26
2023/03/30 01:39:02;;;;;;;13.45;6.47;;;;;;;0.54;57.10;100763.22;4990339;28;20120;-26
2023/03/30 01:41:44;;;;;;;13.05;5.97;;;;;;;0.48;56.99;100764.56;4990396;28;20074;-27
2023/03/30 01:44:23;;;;;;;11.40;6.10;;;;;;;0.18;58.33;100757.59;4990252;28;20521;-27
2023/03/30 01:47:22;;;;;;;17.38;9.52;;;;;;;-0.20;59.29;100764.41;4990306;28;20034;-27
2023/03/30 01:49:57;;;;;;;221.88;122.90;;;;;;;-0.18;59.40;100757.22;4958164;28;20046;-27
2023/03/30 01:52:37;;;;;;;597.35;340.25;;;;;;;-0.01;59.04;100761.00;4989852;28;20040;-27
2023/03/30 01:55:24;;;;;;;136.00;55.05;;;;;;;0.13;58.88;100765.06;4989987;28;20037;-27
2023/03/30 01:57:59;;;;;;;292.85;99.75;;;;;;;-0.13;59.14;100734.06;4989794;28;20034;-26
2023/03/30 02:00:26;;;;;;;496.67;167.63;;;;;;;0.09;58.39;100766.28;4988874;28;20038;-26
2023/03/30 02:03:30;;;;;;;329.42;127.50;;;;;;;0.43;58.32;100777.28;4988459;28;20696;-27
2023/03/30 02:06:02;;;;;;;98.97;50.88;;;;;;;0.66;56.69;100775.25;4938923;28;20552;-27
2023/03/30 02:08:31;;;;;;;38.67;25.75;;;;;;;0.22;58.04;100763.44;4988684;28;20034;-26
2023/03/30 02:10:57;;;;;;;51.22;38.47;;;;;;;0.67;56.94;100784.75;4988376;28;20019;-27
2023/03/30 02:13:26;;;;;;;16.17;9.50;;;;;;;0.67;56.17;100774.25;4988713;28;20033;-26
2023/03/30 02:16:01;;;;;;;16.63;9.27;;;;;;;0.25;58.29;100731.69;4988915;28;20030;-26
2023/03/30 02:18:27;;;;;;;11.75;5.70;;;;;;;0.92;56.30;100777.31;4988542;28;20096;-27
2023/03/30 02:20:57;;;;;;;13.32;6.63;;;;;;;0.38;57.73;100751.44;4988670;28;20019;-27
2023/03/30 02:23:27;;;;;;;11.15;6.32;;;;;;;0.35;58.10;100754.34;4988419;28;20030;-26
2023/03/30 02:25:52;;;;;;;17.13;7.80;;;;;;;0.47;58.61;100783.06;4988243;28;20104;-26
2023/03/30 02:28:18;;;;;;;15.60;7.72;;;;;;;0.57;57.59;100778.66;4988209;28;20473;-27
2023/03/30 02:30:45;;;;;;;12.45;6.47;;;;;;;0.57;57.13;100784.78;4988202;28;20058;-27
2023/03/30 02:33:40;;;;;;;12.07;6.13;;;;;;;0.63;57.29;100786.00;4988205;28;20026;-27
2023/03/30 02:36:19;;;;;;;13.25;6.13;;;;;;;0.69;57.46;100795.94;4944752;28;20035;-27
2023/03/30 02:39:13;;;;;;;11.85;5.53;;;;;;;0.79;56.55;100793.34;4988303;28;20100;-26
2023/03/30 02:42:03;;;;;;;13.93;5.72;;;;;;;0.65;56.77;100770.13;4988162;28;20057;-27
2023/03/30 02:44:41;;;;;;;16.15;8.15;;;;;;;0.78;56.84;100797.78;4987900;28;20049;-27
2023/03/30 02:47:35;;;;;;;23.20;12.90;;;;;;;0.73;56.86;100797.34;4988154;28;20058;-26
2023/03/30 02:50:36;;;;;;;22.20;11.80;;;;;;;0.13;58.08;100786.88;4988025;28;20127;-26
2023/03/30 02:53:31;;;;;;;40.08;26.73;;;;;;;0.51;57.61;100802.84;4905246;28;20078;-26
2023/03/30 02:56:19;;;;;;;42.85;24.83;;;;;;;0.30;58.66;100802.94;4946479;28;20042;-27
2023/03/30 03:01:39;;;;;;;21.92;11.95;;;;;;;0.60;57.43;100812.53;5083938;27;20389;-28
2023/03/30 03:04:06;;;;;;;18.67;9.77;;;;;;;0.35;59.42;100806.00;5084121;28;20029;-28
2023/03/30 03:06:32;;;;;;;227.88;76.28;;;;;;;0.10;59.33;100812.53;5083993;28;20047;-28
2023/03/30 03:08:58;;;;;;;57.25;25.80;;;;;;;0.19;59.93;100809.94;5083530;28;20021;-28
2023/03/30 03:11:24;;;;;;;28.30;14.75;;;;;;;0.40;57.82;100812.47;5083559;28;20059;-28
2023/03/30 03:13:50;;;;;;;31.13;18.35;;;;;;;-0.02;60.33;100823.13;5083806;28;20021;-28
2023/03/30 03:16:16;;;;;;;48.47;22.55;;;;;;;-0.15;61.12;100822.50;5083616;28;20498;-28
2023/03/30 03:18:41;;;;;;;209.50;81.57;;;;;;;0.16;59.86;100827.72;5083547;28;20036;-28
2023/03/30 03:21:08;;;;;;;66.03;42.33;;;;;;;-0.21;60.41;100820.41;5083593;28;20113;-28
2023/03/30 03:23:35;;;;;;;40.03;24.50;;;;;;;-0.11;60.43;100813.41;5083438;28;20194;-28
2023/03/30 03:26:01;;;;;;;40.80;24.15;;;;;;;-0.36;62.00;100819.09;5083507;28;20031;-28
2023/03/30 03:28:28;;;;;;;48.22;27.65;;;;;;;-0.14;61.30;100821.56;5083375;28;20024;-28
2023/03/30 03:30:54;;;;;;;48.38;28.88;;;;;;;-0.36;61.52;100819.09;5083254;28;20145;-28
2023/03/30 03:33:20;;;;;;;52.08;30.67;;;;;;;-0.10;61.25;100825.56;5083333;28;20137;-28
2023/03/30 03:35:45;;;;;;;52.78;29.33;;;;;;;-0.19;62.45;100828.13;5083012;28;20453;-29
2023/03/30 03:38:12;;;;;;;63.42;36.30;;;;;;;0.07;61.28;100826.75;5083175;28;20028;-28
2023/03/30 03:40:37;;;;;;;62.90;35.78;;;;;;;0.25;59.60;100826.13;5082930;28;20028;-28
2023/03/30 03:43:03;;;;;;;42.47;26.67;;;;;;;-0.10;61.82;100820.31;5083227;28;20791;-28
2023/03/30 03:45:28;;;;;;;33.15;21.20;;;;;;;0.01;61.80;100823.81;5083137;28;20024;-28
2023/03/30 03:47:54;;;;;;;40.25;21.23;;;;;;;0.20;60.99;100818.63;5082929;28;20032;-28
2023/03/30 03:50:20;;;;;;;35.83;21.30;;;;;;;0.02;60.19;100828.94;5082855;28;20093;-30
2023/03/30 03:52:45;;;;;;;36.40;20.52;;;;;;;-0.38;62.09;100834.94;5082912;28;20032;-26
2023/03/30 03:55:11;;;;;;;36.58;22.13;;;;;;;0.13;61.81;100828.00;5082955;28;20021;-26
2023/03/30 03:57:37;;;;;;;37.28;19.52;;;;;;;-0.13;61.16;100832.84;5082656;28;20107;-28
2023/03/30 04:00:04;;;;;;;37.83;23.10;;;;;;;-0.33;63.03;100835.38;5082698;28;20147;-28
2023/03/30 04:02:29;;;;;;;35.15;20.95;;;;;;;-0.34;62.25;100840.75;5082543;28;20052;-29
2023/03/30 04:04:56;;;;;;;31.70;17.33;;;;;;;-0.17;61.05;100832.28;5082774;28;20075;-28
2023/03/30 04:07:24;;;;;;;30.45;18.40;;;;;;;-0.47;62.51;100830.44;5082617;28;20082;-29
2023/03/30 04:09:50;;;;;;;270.65;77.88;;;;;;;-0.48;62.30;100837.50;5082531;28;20036;-28
2023/03/30 04:12:15;;;;;;;68.80;27.90;;;;;;;-0.51;62.24;100832.53;5072228;28;20081;-29
2023/03/30 04:14:41;;;;;;;84.68;29.27;;;;;;;-0.73;62.95;100840.50;5068941;28;20505;-28
2023/03/30 04:17:06;;;;;;;149.55;42.95;;;;;;;-0.17;62.92;100840.16;5069164;28;20813;-28
2023/03/30 04:19:31;;;;;;;93.47;40.05;;;;;;;-0.21;62.13;100846.59;5068653;28;20407;-28
2023/03/30 04:21:57;;;;;;;39.05;18.40;;;;;;;-0.03;60.17;100860.78;5068875;28;20024;-28
2023/03/30 04:24:28;;;;;;;47.63;19.85;;;;;;;-0.28;62.13;100855.97;5068508;28;20028;-28
2023/03/30 04:26:56;;;;;;;109.65;37.63;;;;;;;-0.42;62.01;100857.94;5069203;28;20036;-27
2023/03/30 04:29:22;;;;;;;45.72;18.83;;;;;;;-0.31;62.58;100858.84;5068787;28;20024;-27
2023/03/30 04:31:49;;;;;;;43.50;18.67;;;;;;;0.01;62.11;100866.59;5068812;28;20080;-27
2023/03/30 04:34:20;;;;;;;34.63;18.50;;;;;;;0.01;61.72;100866.59;5068415;28;20020;-27
2023/03/30 04:36:49;;;;;;;30.52;15.50;;;;;;;-0.52;64.78;100880.63;5068376;28;20056;-27
2023/03/30 04:39:16;;;;;;;27.13;13.80;;;;;;;-0.63;65.44;100868.41;5068437;28;20117;-27
2023/03/30 04:41:44;;;;;;;30.37;16.20;;;;;;;-0.68;65.15;100880.22;5068454;28;20492;-28
2023/03/30 04:44:10;;;;;;;22.23;11.48;;;;;;;-0.46;63.18;100887.97;5068326;28;20024;-27
2023/03/30 04:46:36;;;;;;;33.88;12.73;;;;;;;-0.38;63.21;100889.16;5068166;28;20029;-27
2023/03/30 04:49:03;;;;;;;26.80;12.27;;;;;;;-0.20;63.01;100900.72;5068487;28;20487;-27
2023/03/30 04:51:30;;;;;;;25.27;11.25;;;;;;;0.12;60.30;100889.28;5068249;28;20027;-27
2023/03/30 04:53:55;;;;;;;22.58;11.00;;;;;;;0.29;60.29;100893.13;5068218;28;20147;-27
2023/03/30 04:56:21;;;;;;;36.17;14.13;;;;;;;0.19;60.99;100906.19;5067871;28;20107;-27
2023/03/30 04:58:47;;;;;;;36.38;20.40;;;;;;;0.18;60.85;100894.00;5068220;28;20411;-27
2023/03/30 05:01:12;;;;;;;30.70;15.68;;;;;;;0.45;60.04;100908.34;5067857;28;20044;-27
2023/03/30 05:03:38;;;;;;;30.15;14.32;;;;;;;0.43;61.08;100897.16;5068085;28;20094;-27
2023/03/30 05:06:03;;;;;;;23.85;10.48;;;;;;;0.25;59.20;100895.16;5067970;28;20031;-27
2023/03/30 05:08:29;;;;;;;21.83;11.10;;;;;;;0.57;58.90;100904.66;5068168;28;20052;-27
2023/03/30 05:10:57;;;;;;;19.15;10.13;;;;;;;0.89;58.49;100906.28;5068142;28;20029;-27
2023/03/30 05:13:22;;;;;;;21.20;9.85;;;;;;;0.36;60.07;100908.16;5067785;28;20033;-27
2023/03/30 05:15:55;;;;;;;17.05;8.10;;;;;;;0.42;60.84;100911.25;5067840;28;20471;-27
2023/03/30 05:18:20;;;;;;;20.63;10.20;;;;;;;0.46;61.43;100913.47;5067596;28;20524;-28
2023/03/30 05:20:46;;;;;;;27.80;13.93;;;;;;;0.30;62.04;100905.25;5067928;28;20024;-27
2023/03/30 05:23:12;;;;;;;41.90;20.63;;;;;;;0.69;61.06;100916.72;5066583;28;20455;-28
2023/03/30 05:25:37;;;;;;;31.70;17.38;;;;;;;0.98;59.57;100919.44;5067487;28;20028;-27
2023/03/30 05:28:02;;;;;;;31.67;16.08;;;;;;;0.70;60.08;100922.81;5067677;28;20032;-27
2023/03/30 05:30:28;;;;;;;385.77;170.43;;;;;;;0.78;60.09;100926.44;5067806;28;20107;-27
2023/03/30 05:32:53;;;;;;;176.80;89.25;;;;;;;0.72;62.34;100921.72;5067426;28;20435;-26
2023/03/30 05:35:19;;;;;;;29.38;17.95;;;;;;;0.90;62.54;100916.66;5067076;28;20846;-27
2023/03/30 05:37:44;;;;;;;18.88;10.63;;;;;;;1.03;58.81;100926.91;5067345;28;20430;-27
2023/03/30 05:40:10;;;;;;;29.17;20.40;;;;;;;1.16;57.95;100931.88;5067306;28;20024;-27
2023/03/30 05:42:36;;;;;;;33.00;23.83;;;;;;;1.27;57.28;100936.19;5067493;28;20037;-27
2023/03/30 05:45:02;;;;;;;25.35;16.52;;;;;;;1.40;56.98;100929.69;5067057;28;20024;-27
2023/03/30 05:47:28;;;;;;;28.50;13.82;;;;;;;1.36;57.12;100919.59;5067276;28;20031;-27
2023/03/30 05:49:53;;;;;;;17.10;10.68;;;;;;;1.50;57.85;100929.69;5067083;28;20036;-27
2023/03/30 05:52:20;;;;;;;39.33;18.60;;;;;;;1.77;57.42;100928.16;5067240;28;20066;-27
2023/03/30 05:54:45;;;;;;;24.55;11.65;;;;;;;2.08;55.47;100930.59;5067058;28;20070;-28
2023/03/30 05:57:11;;;;;;;24.88;12.43;;;;;;;2.29;54.30;100944.41;5067228;28;20024;-27
2023/03/30 05:59:37;;;;;;;32.40;14.23;;;;;;;2.76;54.86;100933.81;5066634;28;20071;-27
2023/03/30 06:02:02;;;;;;;22.77;10.63;;;;;;;2.69;53.05;100935.38;5066785;28;20029;-27
2023/03/30 06:04:28;;;;;;;164.07;54.35;;;;;;;2.61;53.58;100937.91;5066991;28;20056;-27
2023/03/30 06:06:53;;;;;;;177.95;59.05;;;;;;;2.83;54.30;100943.78;5066709;28;20111;-27
2023/03/30 06:09:19;;;;;;;191.82;54.20;;;;;;;2.79;53.60;100932.69;5066910;28;20036;-27
2023/03/30 06:11:44;;;;;;;159.10;44.65;;;;;;;2.79;51.96;100943.22;5066634;28;20028;-27
2023/03/30 06:14:10;;;;;;;28.63;14.70;;;;;;;2.70;51.70;100939.69;5066956;28;20039;-27
2023/03/30 06:16:35;;;;;;;14.77;7.05;;;;;;;2.91;51.31;100951.78;5066845;28;20079;-27
2023/03/30 06:19:01;;;;;;;32.45;17.17;;;;;;;3.26;50.89;100939.63;5066467;28;20469;-27
2023/03/30 06:21:27;;;;;;;26.20;15.38;;;;;;;3.60;50.40;100952.97;5066552;28;20039;-27
2023/03/30 06:23:52;;;;;;;18.08;11.27;;;;;;;4.03;49.06;100954.78;5066648;28;20028;-27
2023/03/30 06:26:18;;;;;;;24.67;11.80;;;;;;;4.32;47.85;100958.13;5066631;28;20025;-27
2023/03/30 06:28:44;;;;;;;23.48;11.70;;;;;;;4.20;48.67;100957.53;5066455;28;20454;-27
2023/03/30 06:31:10;;;;;;;22.65;12.32;;;;;;;4.60;46.74;100951.66;5066557;28;20162;-28
2023/03/30 06:33:36;;;;;;;17.13;9.95;;;;;;;4.62;47.33;100959.44;5066532;28;20028;-26
2023/03/30 06:36:02;;;;;;;20.23;12.30;;;;;;;4.98;46.19;100967.16;5066133;28;20024;-28
2023/03/30 06:38:28;;;;;;;21.67;11.60;;;;;;;4.97;46.43;100961.06;5066542;28;20024;-28
2023/03/30 06:40:53;;;;;;;18.52;9.90;;;;;;;5.10;46.27;100965.88;5066323;28;20047;-27
2023/03/30 06:43:21;;;;;;;19.85;11.85;;;;;;;4.96;44.04;100945.34;5066180;28;20032;-27
2023/03/30 06:45:54;;;;;;;10.18;5.25;;;;;;;5.32;44.78;100966.28;5066159;28;20046;-27
2023/03/30 06:48:22;;;;;;;10.52;4.65;;;;;;;5.76;46.40;100968.63;5066048;28;20571;-27
2023/03/30 06:50:49;;;;;;;11.02;5.28;;;;;;;6.07;43.78;100968.00;5066155;28;20029;-27
2023/03/30 06:53:15;;;;;;;11.38;5.22;;;;;;;6.36;43.56;100976.25;5066092;28;20029;-28
2023/03/30 06:55:41;;;;;;;11.45;5.05;;;;;;;6.55;44.43;100976.84;5066499;28;20032;-27
2023/03/30 06:58:07;;;;;;;6.93;3.88;;;;;;;6.46;41.37;100975.22;5066256;28;20074;-27
2023/03/30 07:00:33;;;;;;;8.65;4.35;;;;;;;6.92;42.54;100981.53;5065449;28;20045;-28
2023/03/30 07:02:59;;;;;;;8.60;4.20;;;;;;;7.19;43.78;100977.59;5066107;28;20025;-27
2023/03/30 07:05:27;;;;;;;8.05;4.07;;;;;;;6.99;42.45;100984.34;5066322;28;20071;-28
2023/03/30 07:07:53;;;;;;;12.77;4.82;;;;;;;7.08;44.24;100985.09;5066301;28;20094;-27
2023/03/30 07:10:19;;;;;;;10.23;4.75;;;;;;;7.41;43.03;100983.09;5066047;28;20036;-27
2023/03/30 07:12:45;;;;;;;34.40;21.40;;;;;;;7.67;41.85;100989.91;5066110;28;20106;-28
2023/03/30 07:15:11;;;;;;;13.73;5.10;;;;;;;7.53;40.63;100984.34;5066140;28;20396;-28
2023/03/30 07:17:36;;;;;;;10.90;4.10;;;;;;;7.99;39.99;100979.03;5065830;28;20407;-28
2023/03/30 07:20:03;;;;;;;9.77;4.80;;;;;;;8.16;41.51;100982.34;5066083;28;20070;-28
2023/03/30 07:22:29;;;;;;;29.90;13.73;;;;;;;8.07;36.04;100980.78;5047868;28;20119;-28
2023/03/30 07:24:54;;;;;;;67.43;25.35;;;;;;;8.10;35.49;100979.59;5065753;28;20115;-28
2023/03/30 07:27:23;;;;;;;50.22;20.75;;;;;;;8.16;36.26;100985.00;5065763;28;20047;-27
2023/03/30 07:29:49;;;;;;;23.00;11.95;;;;;;;8.59;34.37;100987.94;5066054;28;20025;-27
2023/03/30 07:32:15;;;;;;;54.03;19.45;;;;;;;8.50;33.31;100985.53;5065488;28;20024;-27
2023/03/30 07:34:41;;;;;;;50.60;18.95;;;;;;;8.74;34.01;100982.59;5065431;28;20186;-28
2023/03/30 07:37:07;;;;;;;23.38;9.07;;;;;;;9.02;35.19;100984.59;5065671;28;20540;-28
2023/03/30 07:39:32;;;;;;;112.43;35.53;;;;;;;9.06;33.51;100985.88;5065454;28;20525;-28
2023/03/30 07:41:58;;;;;;;82.53;27.65;;;;;;;8.98;34.78;100985.97;5065760;28;20024;-27
2023/03/30 07:44:27;;;;;;;48.75;26.58;;;;;;;9.12;33.01;100984.31;5065509;28;20033;-27
2023/03/30 07:46:54;;;;;;;35.55;13.93;;;;;;;9.53;33.65;100992.53;5067156;28;20029;-28
2023/03/30 07:49:19;;;;;;;9.45;4.32;;;;;;;9.13;32.81;100980.63;5069141;28;20067;-28
2023/03/30 07:51:46;;;;;;;65.13;21.08;;;;;;;9.52;34.05;100980.25;5069252;28;20033;-28
2023/03/30 07:54:12;;;;;;;75.35;23.00;;;;;;;9.57;33.58;100977.03;5069392;28;20024;-27
2023/03/30 07:56:38;;;;;;;18.75;7.53;;;;;;;9.95;33.81;100974.06;5069280;28;20031;-27
2023/03/30 07:59:04;;;;;;;108.53;29.77;;;;;;;9.98;33.90;100979.84;5068864;28;20111;-27
2023/03/30 08:01:31;;;;;;;7.43;3.35;;;;;;;9.71;33.13;100978.81;5069047;28;20438;-27
2023/03/30 08:03:57;;;;;;;11.13;4.63;;;;;;;9.94;34.48;100978.59;5069029;28;20059;-28
2023/03/30 08:06:23;;;;;;;6.32;3.35;;;;;;;10.09;33.61;100975.00;5068942;28;20024;-27
2023/03/30 08:08:48;;;;;;;23.80;8.05;;;;;;;10.23;33.36;100976.75;5068716;28;20040;-28
2023/03/30 08:11:15;;;;;;;23.77;8.82;;;;;;;10.48;32.31;100979.00;5069102;28;20025;-28
2023/03/30 08:13:40;;;;;;;7.45;3.15;;;;;;;10.31;32.24;100971.31;5068806;28;20174;-28
2023/03/30 08:16:07;;;;;;;5.85;3.42;;;;;;;10.54;31.50;100979.06;5068864;28;20044;-28
2023/03/30 08:18:33;;;;;;;7.57;3.25;;;;;;;10.41;30.65;100979.78;5068581;28;20036;-28
2023/03/30 08:20:59;;;;;;;7.28;3.03;;;;;;;10.67;30.92;100977.50;5068761;28;20388;-28
2023/03/30 08:23:24;;;;;;;6.93;3.08;;;;;;;10.49;30.10;100975.31;5068802;28;20029;-28
2023/03/30 08:25:51;;;;;;;6.93;3.60;;;;;;;10.88;29.13;100972.03;5069068;28;20024;-28
2023/03/30 08:28:21;;;;;;;5.60;2.47;;;;;;;10.69;29.03;100959.44;5068447;28;20047;-28
2023/03/30 08:30:46;;;;;;;15.98;6.53;;;;;;;10.99;31.72;100965.31;5068470;28;20470;-28
2023/03/30 08:33:13;;;;;;;7.18;2.92;;;;;;;11.07;30.88;100959.78;5068585;28;20530;-28
2023/03/30 08:35:39;;;;;;;8.10;3.05;;;;;;;10.99;29.50;100962.63;5068762;28;20029;-28
2023/03/30 08:38:04;;;;;;;6.82;2.97;;;;;;;11.53;29.01;100950.28;5068581;28;20036;-28
2023/03/30 08:40:30;;;;;;;5.82;2.65;;;;;;;11.70;29.98;100953.38;5068172;28;20123;-28
2023/03/30 08:43:30;;;;;;;6.03;2.72;;;;;;;11.97;30.66;100952.38;5068591;28;20028;-28
2023/03/30 08:45:59;;;;;;;7.07;2.70;;;;;;;11.54;32.09;100946.56;5068619;28;20044;-28
2023/03/30 08:48:29;;;;;;;6.63;3.00;;;;;;;11.93;30.28;100948.47;5068281;28;20276;-28
2023/03/30 08:51:20;;;;;;;11.93;6.38;;;;;;;12.06;29.73;100919.06;5068577;28;20032;-28
2023/03/30 08:53:57;;;;;;;6.03;3.13;;;;;;;12.34;29.80;100931.34;5068024;28;20511;-29
2023/03/30 08:56:27;;;;;;;7.65;3.15;;;;;;;12.44;29.06;100926.38;5068283;28;20025;-28
2023/03/30 08:59:11;;;;;;;7.57;2.97;;;;;;;12.12;29.12;100921.94;5067682;28;20032;-28
2023/03/30 09:01:51;;;;;;;6.60;2.85;;;;;;;12.51;28.92;100912.19;5067951;28;20036;-28
2023/03/30 09:04:32;;;;;;;5.70;2.60;;;;;;;12.16;27.29;100893.75;5067846;28;20031;-28
2023/03/30 09:07:20;;;;;;;5.57;3.15;;;;;;;12.96;28.62;100914.88;5067839;28;20021;-28
2023/03/30 09:09:49;;;;;;;5.43;2.97;;;;;;;13.06;26.63;100910.69;5067761;28;20086;-28
2023/03/30 09:12:30;;;;;;;5.47;3.03;;;;;;;13.14;26.91;100904.25;5067655;28;20741;-28
2023/03/30 09:15:02;;;;;;;5.00;2.85;;;;;;;13.33;27.76;100897.16;5067947;28;20063;-27
2023/03/30 09:17:45;;;;;;;6.90;4.68;;;;;;;13.78;27.22;100905.06;5067987;28;20021;-28
2023/03/30 09:20:19;;;;;;;4.22;2.63;;;;;;;13.38;27.05;100894.66;5067758;28;20036;-28
2023/03/30 09:22:46;;;;;;;4.60;2.53;;;;;;;13.57;28.17;100884.81;5067911;28;20089;-28
2023/03/30 09:25:15;;;;;;;3.58;2.33;;;;;;;13.36;27.94;100878.00;5067713;28;20025;-27
2023/03/30 09:27:54;;;;;;;5.38;2.60;;;;;;;13.82;27.81;100884.81;5067846;28;20066;-28
2023/03/30 09:30:25;;;;;;;8.43;2.30;;;;;;;13.41;27.16;100870.09;5067697;28;20070;-28
2023/03/30 09:33:03;;;;;;;4.78;2.35;;;;;;;13.76;27.09;100883.00;5067729;28;20028;-28
2023/03/30 09:35:39;;;;;;;5.20;2.30;;;;;;;13.64;26.17;100879.41;5067576;28;20036;-28
2023/03/30 09:38:04;;;;;;;5.28;3.25;;;;;;;14.05;26.27;100870.75;5067651;28;20102;-28
2023/03/30 09:40:49;;;;;;;4.88;2.30;;;;;;;14.07;26.66;100866.00;5067133;28;20395;-28
2023/03/30 09:43:34;;;;;;;4.93;2.30;;;;;;;14.33;25.77;100874.81;5067290;28;20151;-28
2023/03/30 09:46:05;;;;;;;5.47;2.30;;;;;;;14.29;25.38;100873.63;5067230;28;20020;-26
2023/03/30 09:48:41;;;;;;;7.60;2.40;;;;;;;14.78;26.07;100868.31;5066979;28;20078;-28
2023/03/30 09:51:17;;;;;;;5.40;2.13;;;;;;;14.70;24.79;100849.84;5067184;28;20044;-28
2023/03/30 09:53:45;;;;;;;3.25;1.98;;;;;;;14.50;25.11;100845.50;5067059;28;20754;-28
2023/03/30 09:56:26;;;;;;;;;;;;;;;14.62;22.66;100867.06;5067467;28;20032;-28
2023/03/30 09:58:51;;;;;;;5.60;2.80;;;;;;;14.59;23.62;100852.25;5067095;28;19916;-28
2023/03/30 10:01:19;;;;;;;4.93;2.80;;;;;;;14.90;22.80;100823.53;5066479;28;20048;-28
2023/03/30 10:04:05;;;;;;;4.85;2.75;;;;;;;15.31;24.15;100835.31;5049171;28;20055;-28
2023/03/30 10:06:37;;;;;;;7.28;2.45;;;;;;;15.09;25.85;100810.03;5066909;28;20032;-28
2023/03/30 10:09:05;;;;;;;5.95;2.95;;;;;;;15.31;24.59;100831.81;5066301;28;20050;-28
2023/03/30 10:11:30;;;;;;;9.82;4.75;;;;;;;15.43;25.04;100829.94;5066859;28;20037;-28
2023/03/30 10:13:57;;;;;;;8.35;4.22;;;;;;;15.18;23.49;100828.28;5066939;28;20443;-28
2023/03/30 10:16:29;;;;;;;7.18;3.65;;;;;;;15.68;24.66;100817.09;5066661;28;20033;-28
2023/03/30 10:19:03;;;;;;;5.13;2.88;;;;;;;15.99;22.57;100820.47;5066687;28;20553;-28
2023/03/30 10:21:34;;;;;;;6.13;2.88;;;;;;;16.15;22.73;100815.44;5066459;28;20028;-28
2023/03/30 10:24:23;;;;;;;6.68;2.47;;;;;;;16.47;22.66;100800.47;5066713;28;20039;-28
2023/03/30 10:27:10;;;;;;;6.57;2.45;;;;;;;16.70;22.80;100812.22;5066856;28;20024;-28
2023/03/30 10:29:36;;;;;;;5.63;2.25;;;;;;;16.93;21.76;100816.69;5066516;28;20502;-28
2023/03/30 10:32:09;;;;;;;4.00;2.20;;;;;;;16.67;23.08;100809.97;5066816;28;20499;-28
2023/03/30 10:34:45;;;;;;;5.30;2.58;;;;;;;16.41;23.20;100824.84;5059984;28;20181;-28
2023/03/30 10:37:32;;;;;;;3.72;1.90;;;;;;;15.73;24.12;100786.00;5055718;28;21166;-28
2023/03/30 10:40:01;;;;;;;4.70;2.15;;;;;;;16.15;21.65;100805.47;5047707;28;20024;-28
2023/03/30 10:42:30;;;;;;;5.18;2.30;;;;;;;16.88;21.25;100786.97;5056543;28;20056;-28
2023/03/30 10:45:00;;;;;;;4.80;2.38;;;;;;;17.21;20.67;100780.78;5046109;28;20031;-28
2023/03/30 10:47:25;;;;;;;7.07;2.83;;;;;;;16.70;20.84;100804.13;5057755;28;20495;-28
2023/03/30 10:50:04;;;;;;;7.32;4.22;;;;;;;16.77;20.53;100807.47;5065024;28;20034;-28
2023/03/30 10:52:57;;;;;;;7.68;6.25;;;;;;;16.89;20.42;100777.00;5063517;28;20519;-28
2023/03/30 10:55:50;;;;;;;4.38;2.30;;;;;;;17.15;20.05;100795.25;5062532;28;20021;-28
2023/03/30 10:58:25;;;;;;;3.67;2.10;;;;;;;17.82;21.62;100785.44;5063887;28;20017;-28
2023/03/30 11:01:29;;;;;;;6.47;1.90;;;;;;;17.83;24.36;100787.09;5063195;28;20052;-28
2023/03/30 11:04:00;;;;;;;4.47;2.10;;;;;;;17.31;22.20;100784.72;5063210;28;20032;-28
2023/03/30 11:06:31;;;;;;;4.90;2.40;;;;;;;17.99;21.45;100786.22;5062918;28;20659;-28
2023/03/30 11:09:00;;;;;;;5.85;2.17;;;;;;;18.05;20.72;100750.13;5064951;28;20021;-28
2023/03/30 11:11:38;;;;;;;6.00;2.28;;;;;;;18.13;21.75;100748.06;5064602;28;20115;-28
2023/03/30 11:14:15;;;;;;;5.07;2.17;;;;;;;18.53;23.88;100746.88;5062797;28;20027;-28
2023/03/30 11:16:51;;;;;;;5.13;2.13;;;;;;;18.55;22.12;100752.81;5062213;28;20078;-28
2023/03/30 11:19:35;;;;;;;6.75;2.15;;;;;;;18.28;22.44;100756.34;5064774;28;20025;-28
2023/03/30 11:22:16;;;;;;;3.47;1.85;;;;;;;18.43;21.76;100742.19;5064156;28;20024;-28
2023/03/30 11:24:44;;;;;;;4.75;2.38;;;;;;;17.76;22.08;100749.47;5066727;28;20074;-28
2023/03/30 11:27:15;;;;;;;4.95;2.28;;;;;;;18.00;22.16;100742.00;5069841;28;20055;-28
2023/03/30 11:29:56;;;;;;;4.35;1.98;;;;;;;17.75;21.95;100720.84;5070009;28;20514;-28
2023/03/30 11:32:36;;;;;;;4.65;2.20;;;;;;;18.18;22.24;100723.81;5069796;28;20030;-27
2023/03/30 11:35:39;;;;;;;4.78;2.20;;;;;;;17.33;22.13;100726.78;5069703;28;20527;-28
2023/03/30 11:38:26;;;;;;;5.93;2.15;;;;;;;18.25;21.91;100711.75;5066297;28;20024;-28
2023/03/30 11:40:56;;;;;;;7.03;2.30;;;;;;;18.92;21.74;100700.75;5067062;28;20036;-28